Ana Sayfa
METAR-TAF:

METAR-TAF

Havaalanları :

Wiscasset Airport

Wiscasset, Maine, Amerika Birleşik Devletleri

Enlem: 43-57-49N, Boylam: 069-42-42W, yükseklik: 20 m

Güncel hava durumu gözlemi

Rapor saat 12:53 UTC de 17 dakika önce yapıldı.
Sakin rüzgar
Sıcaklık 17°C
Nem 88%
Basınç 1020 hPa
Görüş mesafesi: 16.1 km
400 ft yükseklikte çok bulutlu

METAR: KIWI 271253Z AUTO 00000KT 10SM OVC004 17/15 A3013 RMK AO2 SLP204 T01670150

Saat: 09:10 (13:10 UTC)


TAF: eksik

4.000'den fazla havaalanı için hava durumu gözlemleri ve tahminleri (METAR ve TAF raporları).

Kullanılabilir istasyonlar harita üzerinde sarı ve kırmızı noktalarla gösterilir.

İstasyonun adını görmek için fareyi noktanın üzerinde gezdirin.

Sonrasında hava gözlem ve tahminlerini görmek için tıklayın.

Haritayı değiştirmek için: yaklaştırmak için siyah artı işaretli yeşil düğmeye ve uzaklaştırmak için de eksi işaretli düğmeye hızla tıklayın; bitişik haritalar için yeşil okları kullanın.


METAR-TAF: